sensor_id;sensor_type;location;lat;lon;timestamp;temperature;humidity
16491;DHT22;8356;51.214;3.270;2024-01-07T00:02:16;179.80;2252.80
16491;DHT22;8356;51.214;3.270;2024-01-07T00:04:42;179.80;2252.80
16491;DHT22;8356;51.214;3.270;2024-01-07T00:07:16;179.90;2252.80
16491;DHT22;8356;51.214;3.270;2024-01-07T00:09:42;179.70;2252.80
16491;DHT22;8356;51.214;3.270;2024-01-07T00:12:07;179.80;2252.80
16491;DHT22;8356;51.214;3.270;2024-01-07T00:14:33;179.70;2252.80
16491;DHT22;8356;51.214;3.270;2024-01-07T00:16:59;179.80;2252.80
16491;DHT22;8356;51.214;3.270;2024-01-07T00:19:24;179.70;2252.80
16491;DHT22;8356;51.214;3.270;2024-01-07T00:21:50;179.70;2252.80
16491;DHT22;8356;51.214;3.270;2024-01-07T00:24:16;179.90;2252.80
16491;DHT22;8356;51.214;3.270;2024-01-07T00:26:41;179.80;2252.80
16491;DHT22;8356;51.214;3.270;2024-01-07T00:29:07;179.80;2252.80
16491;DHT22;8356;51.214;3.270;2024-01-07T00:31:33;179.90;2252.80
16491;DHT22;8356;51.214;3.270;2024-01-07T00:33:58;179.90;2252.80
16491;DHT22;8356;51.214;3.270;2024-01-07T00:36:24;180.00;2252.80
16491;DHT22;8356;51.214;3.270;2024-01-07T00:38:50;179.80;2252.80
16491;DHT22;8356;51.214;3.270;2024-01-07T00:41:15;179.70;2252.80
16491;DHT22;8356;51.214;3.270;2024-01-07T00:43:41;179.70;2252.80
16491;DHT22;8356;51.214;3.270;2024-01-07T00:46:07;179.60;2252.80
16491;DHT22;8356;51.214;3.270;2024-01-07T00:48:32;179.50;2252.80
16491;DHT22;8356;51.214;3.270;2024-01-07T00:50:58;179.60;2252.80
16491;DHT22;8356;51.214;3.270;2024-01-07T00:53:23;179.80;2252.80
16491;DHT22;8356;51.214;3.270;2024-01-07T00:55:49;179.40;2252.80
16491;DHT22;8356;51.214;3.270;2024-01-07T00:58:15;179.50;2252.80
16491;DHT22;8356;51.214;3.270;2024-01-07T01:00:40;179.40;2252.80
16491;DHT22;8356;51.214;3.270;2024-01-07T01:03:06;179.40;2252.80
16491;DHT22;8356;51.214;3.270;2024-01-07T01:05:31;179.40;2252.80
16491;DHT22;8356;51.214;3.270;2024-01-07T01:07:57;179.30;2252.80
16491;DHT22;8356;51.214;3.270;2024-01-07T01:10:23;179.40;2252.80
16491;DHT22;8356;51.214;3.270;2024-01-07T01:12:48;179.40;2252.80
16491;DHT22;8356;51.214;3.270;2024-01-07T01:15:14;179.40;2252.80
16491;DHT22;8356;51.214;3.270;2024-01-07T01:17:42;179.40;2252.80
16491;DHT22;8356;51.214;3.270;2024-01-07T01:20:08;179.30;2252.80
16491;DHT22;8356;51.214;3.270;2024-01-07T01:22:34;154.50;2252.80
16491;DHT22;8356;51.214;3.270;2024-01-07T01:24:59;154.50;2252.80
16491;DHT22;8356;51.214;3.270;2024-01-07T01:27:25;154.40;2252.80
16491;DHT22;8356;51.214;3.270;2024-01-07T01:29:51;154.30;2252.80
16491;DHT22;8356;51.214;3.270;2024-01-07T01:32:17;154.20;2252.80
16491;DHT22;8356;51.214;3.270;2024-01-07T01:34:42;154.20;2252.80
16491;DHT22;8356;51.214;3.270;2024-01-07T01:37:11;154.40;2252.80
16491;DHT22;8356;51.214;3.270;2024-01-07T01:39:40;154.30;2252.80
16491;DHT22;8356;51.214;3.270;2024-01-07T01:42:06;154.20;2252.80
16491;DHT22;8356;51.214;3.270;2024-01-07T01:44:32;154.20;2252.80
16491;DHT22;8356;51.214;3.270;2024-01-07T01:46:58;154.30;2252.80
16491;DHT22;8356;51.214;3.270;2024-01-07T01:49:26;154.30;2252.80
16491;DHT22;8356;51.214;3.270;2024-01-07T01:51:51;154.30;2252.80
16491;DHT22;8356;51.214;3.270;2024-01-07T01:54:19;154.10;2252.80
16491;DHT22;8356;51.214;3.270;2024-01-07T01:56:45;154.20;2252.80
16491;DHT22;8356;51.214;3.270;2024-01-07T01:59:12;154.40;2252.80
16491;DHT22;8356;51.214;3.270;2024-01-07T02:01:38;154.40;2252.80
16491;DHT22;8356;51.214;3.270;2024-01-07T02:04:04;154.30;2252.80
16491;DHT22;8356;51.214;3.270;2024-01-07T02:06:30;154.40;2252.80
16491;DHT22;8356;51.214;3.270;2024-01-07T02:08:56;154.40;2252.80
16491;DHT22;8356;51.214;3.270;2024-01-07T02:11:22;154.40;2252.80
16491;DHT22;8356;51.214;3.270;2024-01-07T02:13:48;154.40;2252.80
16491;DHT22;8356;51.214;3.270;2024-01-07T02:16:15;154.30;2252.80
16491;DHT22;8356;51.214;3.270;2024-01-07T02:18:42;154.20;2252.80
16491;DHT22;8356;51.214;3.270;2024-01-07T02:21:09;154.10;2252.80
16491;DHT22;8356;51.214;3.270;2024-01-07T02:23:35;154.10;2252.80
16491;DHT22;8356;51.214;3.270;2024-01-07T02:26:01;154.10;2252.80
16491;DHT22;8356;51.214;3.270;2024-01-07T02:28:26;154.00;2252.80
16491;DHT22;8356;51.214;3.270;2024-01-07T02:30:52;154.00;2252.80
16491;DHT22;8356;51.214;3.270;2024-01-07T02:33:18;154.20;2252.80
16491;DHT22;8356;51.214;3.270;2024-01-07T02:35:43;154.30;2252.80
16491;DHT22;8356;51.214;3.270;2024-01-07T02:38:09;154.20;2252.80
16491;DHT22;8356;51.214;3.270;2024-01-07T02:40:35;154.10;2252.80
16491;DHT22;8356;51.214;3.270;2024-01-07T02:43:00;154.00;2252.80
16491;DHT22;8356;51.214;3.270;2024-01-07T02:45:26;154.10;2252.80
16491;DHT22;8356;51.214;3.270;2024-01-07T02:47:51;154.10;2252.80
16491;DHT22;8356;51.214;3.270;2024-01-07T02:50:17;153.80;2252.80
16491;DHT22;8356;51.214;3.270;2024-01-07T02:52:43;153.90;2252.80
16491;DHT22;8356;51.214;3.270;2024-01-07T02:55:09;153.90;2252.80
16491;DHT22;8356;51.214;3.270;2024-01-07T02:57:34;153.80;2252.80
16491;DHT22;8356;51.214;3.270;2024-01-07T03:00:00;153.80;2252.80
16491;DHT22;8356;51.214;3.270;2024-01-07T03:02:26;153.70;2252.80
16491;DHT22;8356;51.214;3.270;2024-01-07T03:04:52;153.90;2252.80
16491;DHT22;8356;51.214;3.270;2024-01-07T03:07:17;153.80;2252.80
16491;DHT22;8356;51.214;3.270;2024-01-07T03:09:43;153.70;2252.80
16491;DHT22;8356;51.214;3.270;2024-01-07T03:12:09;153.60;2252.80
16491;DHT22;8356;51.214;3.270;2024-01-07T03:14:34;153.70;2252.80
16491;DHT22;8356;51.214;3.270;2024-01-07T03:17:00;153.80;2252.80
16491;DHT22;8356;51.214;3.270;2024-01-07T03:19:25;153.90;2252.80
16491;DHT22;8356;51.214;3.270;2024-01-07T03:21:51;154.00;2252.80
16491;DHT22;8356;51.214;3.270;2024-01-07T03:24:17;154.00;2252.80
16491;DHT22;8356;51.214;3.270;2024-01-07T03:26:42;153.90;2252.80
16491;DHT22;8356;51.214;3.270;2024-01-07T03:29:08;153.90;2252.80
16491;DHT22;8356;51.214;3.270;2024-01-07T03:31:33;153.90;2252.80
16491;DHT22;8356;51.214;3.270;2024-01-07T03:33:59;154.10;2252.80
16491;DHT22;8356;51.214;3.270;2024-01-07T03:36:25;154.20;2252.80
16491;DHT22;8356;51.214;3.270;2024-01-07T03:38:50;154.10;2252.80
16491;DHT22;8356;51.214;3.270;2024-01-07T03:41:17;154.20;2252.80
16491;DHT22;8356;51.214;3.270;2024-01-07T03:43:46;154.30;2252.80
16491;DHT22;8356;51.214;3.270;2024-01-07T03:46:13;154.20;2252.80
16491;DHT22;8356;51.214;3.270;2024-01-07T03:48:38;154.40;2252.80
16491;DHT22;8356;51.214;3.270;2024-01-07T03:51:04;154.20;2252.80
16491;DHT22;8356;51.214;3.270;2024-01-07T03:53:30;154.10;2252.80
16491;DHT22;8356;51.214;3.270;2024-01-07T03:55:55;154.10;2252.80
16491;DHT22;8356;51.214;3.270;2024-01-07T03:58:21;154.10;2252.80
16491;DHT22;8356;51.214;3.270;2024-01-07T04:00:47;154.10;2252.80
16491;DHT22;8356;51.214;3.270;2024-01-07T04:03:12;154.00;2252.80
16491;DHT22;8356;51.214;3.270;2024-01-07T04:05:38;154.00;2252.80
16491;DHT22;8356;51.214;3.270;2024-01-07T04:08:04;154.00;2252.80
16491;DHT22;8356;51.214;3.270;2024-01-07T04:10:29;154.10;2252.80
16491;DHT22;8356;51.214;3.270;2024-01-07T04:12:55;154.30;2252.80
16491;DHT22;8356;51.214;3.270;2024-01-07T04:15:21;154.40;2252.80
16491;DHT22;8356;51.214;3.270;2024-01-07T04:17:46;154.30;2252.80
16491;DHT22;8356;51.214;3.270;2024-01-07T04:20:15;154.10;2252.80
16491;DHT22;8356;51.214;3.270;2024-01-07T04:22:41;154.00;2252.80
16491;DHT22;8356;51.214;3.270;2024-01-07T04:25:07;153.90;2252.80
16491;DHT22;8356;51.214;3.270;2024-01-07T04:27:37;153.90;2252.80
16491;DHT22;8356;51.214;3.270;2024-01-07T04:30:04;154.20;2252.80
16491;DHT22;8356;51.214;3.270;2024-01-07T04:32:29;154.20;2252.80
16491;DHT22;8356;51.214;3.270;2024-01-07T04:34:55;154.10;2252.80
16491;DHT22;8356;51.214;3.270;2024-01-07T04:37:22;153.90;2252.80
16491;DHT22;8356;51.214;3.270;2024-01-07T04:39:48;153.70;2252.80
16491;DHT22;8356;51.214;3.270;2024-01-07T04:42:14;153.80;2252.80
16491;DHT22;8356;51.214;3.270;2024-01-07T04:44:40;153.70;2252.80
16491;DHT22;8356;51.214;3.270;2024-01-07T04:47:29;153.90;2252.80
16491;DHT22;8356;51.214;3.270;2024-01-07T04:49:56;153.80;2252.80
16491;DHT22;8356;51.214;3.270;2024-01-07T04:52:25;153.60;2252.80
16491;DHT22;8356;51.214;3.270;2024-01-07T04:54:51;153.60;2252.80
16491;DHT22;8356;51.214;3.270;2024-01-07T04:57:17;153.70;2252.80
16491;DHT22;8356;51.214;3.270;2024-01-07T04:59:43;153.80;2252.80
16491;DHT22;8356;51.214;3.270;2024-01-07T05:02:08;153.90;2252.80
16491;DHT22;8356;51.214;3.270;2024-01-07T05:04:35;153.60;2252.80
16491;DHT22;8356;51.214;3.270;2024-01-07T05:07:01;128.90;2252.80
16491;DHT22;8356;51.214;3.270;2024-01-07T05:09:27;128.90;2252.80
16491;DHT22;8356;51.214;3.270;2024-01-07T05:11:52;128.90;2252.80
16491;DHT22;8356;51.214;3.270;2024-01-07T05:14:18;128.90;2252.80
16491;DHT22;8356;51.214;3.270;2024-01-07T05:16:43;128.80;2252.80
16491;DHT22;8356;51.214;3.270;2024-01-07T05:19:09;128.90;2252.80
16491;DHT22;8356;51.214;3.270;2024-01-07T05:21:35;128.80;2252.80
16491;DHT22;8356;51.214;3.270;2024-01-07T05:24:00;128.80;2252.80
16491;DHT22;8356;51.214;3.270;2024-01-07T05:26:26;128.80;2252.80
16491;DHT22;8356;51.214;3.270;2024-01-07T05:28:51;128.80;2252.80
16491;DHT22;8356;51.214;3.270;2024-01-07T05:31:18;128.70;2252.80
16491;DHT22;8356;51.214;3.270;2024-01-07T05:33:44;128.70;2252.80
16491;DHT22;8356;51.214;3.270;2024-01-07T05:36:13;128.80;2252.80
16491;DHT22;8356;51.214;3.270;2024-01-07T05:38:41;128.80;2252.80
16491;DHT22;8356;51.214;3.270;2024-01-07T05:41:07;153.60;2252.80
16491;DHT22;8356;51.214;3.270;2024-01-07T05:43:33;128.90;2252.80
16491;DHT22;8356;51.214;3.270;2024-01-07T05:45:58;128.90;2252.80
16491;DHT22;8356;51.214;3.270;2024-01-07T05:48:24;128.90;2252.80
16491;DHT22;8356;51.214;3.270;2024-01-07T05:50:50;128.90;2252.80
16491;DHT22;8356;51.214;3.270;2024-01-07T05:53:17;128.90;2252.80
16491;DHT22;8356;51.214;3.270;2024-01-07T05:55:43;128.90;2252.80
16491;DHT22;8356;51.214;3.270;2024-01-07T05:58:08;153.60;2252.80
16491;DHT22;8356;51.214;3.270;2024-01-07T06:00:34;128.90;2252.80
16491;DHT22;8356;51.214;3.270;2024-01-07T06:03:00;153.60;2252.80
16491;DHT22;8356;51.214;3.270;2024-01-07T06:05:26;153.60;2252.80
16491;DHT22;8356;51.214;3.270;2024-01-07T06:07:51;128.90;2252.80
16491;DHT22;8356;51.214;3.270;2024-01-07T06:10:17;153.60;2252.80
16491;DHT22;8356;51.214;3.270;2024-01-07T06:12:43;153.60;2252.80
16491;DHT22;8356;51.214;3.270;2024-01-07T06:15:09;153.60;2252.80
16491;DHT22;8356;51.214;3.270;2024-01-07T06:17:34;153.60;2252.80
16491;DHT22;8356;51.214;3.270;2024-01-07T06:20:00;128.90;2252.80
16491;DHT22;8356;51.214;3.270;2024-01-07T06:22:26;153.70;2252.80
16491;DHT22;8356;51.214;3.270;2024-01-07T06:24:51;153.60;2252.80
16491;DHT22;8356;51.214;3.270;2024-01-07T06:27:17;128.80;2252.80
16491;DHT22;8356;51.214;3.270;2024-01-07T06:29:42;128.70;2252.80
16491;DHT22;8356;51.214;3.270;2024-01-07T06:32:08;128.50;2252.80
16491;DHT22;8356;51.214;3.270;2024-01-07T06:34:35;128.50;2252.80
16491;DHT22;8356;51.214;3.270;2024-01-07T06:37:01;128.40;2252.80
16491;DHT22;8356;51.214;3.270;2024-01-07T06:39:27;128.40;2252.80
16491;DHT22;8356;51.214;3.270;2024-01-07T06:41:53;128.50;2252.80
16491;DHT22;8356;51.214;3.270;2024-01-07T06:44:18;128.50;2252.80
16491;DHT22;8356;51.214;3.270;2024-01-07T06:46:44;128.60;2252.80
16491;DHT22;8356;51.214;3.270;2024-01-07T06:49:10;128.70;2252.80
16491;DHT22;8356;51.214;3.270;2024-01-07T06:51:35;128.80;2252.80
16491;DHT22;8356;51.214;3.270;2024-01-07T06:54:01;128.90;2252.80
16491;DHT22;8356;51.214;3.270;2024-01-07T06:56:27;128.90;2252.80
16491;DHT22;8356;51.214;3.270;2024-01-07T06:58:52;128.70;2252.80
16491;DHT22;8356;51.214;3.270;2024-01-07T07:01:21;128.80;2252.80
16491;DHT22;8356;51.214;3.270;2024-01-07T07:03:49;153.80;2252.80
16491;DHT22;8356;51.214;3.270;2024-01-07T07:06:15;153.80;2252.80
16491;DHT22;8356;51.214;3.270;2024-01-07T07:08:40;128.80;2252.80
16491;DHT22;8356;51.214;3.270;2024-01-07T07:11:06;128.90;2252.80
16491;DHT22;8356;51.214;3.270;2024-01-07T07:13:31;128.70;2252.80
16491;DHT22;8356;51.214;3.270;2024-01-07T07:15:57;128.90;2252.80
16491;DHT22;8356;51.214;3.270;2024-01-07T07:18:23;128.60;2252.80
16491;DHT22;8356;51.214;3.270;2024-01-07T07:20:49;128.50;2252.80
16491;DHT22;8356;51.214;3.270;2024-01-07T07:23:15;128.60;2252.80
16491;DHT22;8356;51.214;3.270;2024-01-07T07:25:40;128.60;2252.80
16491;DHT22;8356;51.214;3.270;2024-01-07T07:28:06;128.80;2252.80
16491;DHT22;8356;51.214;3.270;2024-01-07T07:30:32;128.80;2252.80
16491;DHT22;8356;51.214;3.270;2024-01-07T07:32:57;128.90;2252.80
16491;DHT22;8356;51.214;3.270;2024-01-07T07:35:23;153.70;2252.80
16491;DHT22;8356;51.214;3.270;2024-01-07T07:37:48;153.60;2252.80
16491;DHT22;8356;51.214;3.270;2024-01-07T07:40:14;128.90;2252.80
16491;DHT22;8356;51.214;3.270;2024-01-07T07:42:40;153.60;2252.80
16491;DHT22;8356;51.214;3.270;2024-01-07T07:45:06;128.90;2252.80
16491;DHT22;8356;51.214;3.270;2024-01-07T07:47:31;128.90;2252.80
16491;DHT22;8356;51.214;3.270;2024-01-07T07:49:57;153.60;2252.80
16491;DHT22;8356;51.214;3.270;2024-01-07T07:52:23;128.90;2252.80
16491;DHT22;8356;51.214;3.270;2024-01-07T07:54:52;128.80;2252.80
16491;DHT22;8356;51.214;3.270;2024-01-07T07:57:17;128.80;2252.80
16491;DHT22;8356;51.214;3.270;2024-01-07T07:59:46;128.80;2252.80
16491;DHT22;8356;51.214;3.270;2024-01-07T08:02:12;128.90;2252.80
16491;DHT22;8356;51.214;3.270;2024-01-07T08:04:37;128.80;2252.80
16491;DHT22;8356;51.214;3.270;2024-01-07T08:07:06;128.80;2252.80
16491;DHT22;8356;51.214;3.270;2024-01-07T08:09:32;128.80;2252.80
16491;DHT22;8356;51.214;3.270;2024-01-07T08:11:58;128.90;2252.80
16491;DHT22;8356;51.214;3.270;2024-01-07T08:14:23;128.80;2252.80
16491;DHT22;8356;51.214;3.270;2024-01-07T08:16:49;128.90;2252.80
16491;DHT22;8356;51.214;3.270;2024-01-07T08:19:15;128.80;2252.80
16491;DHT22;8356;51.214;3.270;2024-01-07T08:21:40;128.90;2252.80
16491;DHT22;8356;51.214;3.270;2024-01-07T08:24:06;128.80;2252.80
16491;DHT22;8356;51.214;3.270;2024-01-07T08:26:32;128.60;2252.80
16491;DHT22;8356;51.214;3.270;2024-01-07T08:28:57;128.50;2252.80
16491;DHT22;8356;51.214;3.270;2024-01-07T08:31:23;128.50;2252.80
16491;DHT22;8356;51.214;3.270;2024-01-07T08:33:49;128.70;2252.80
16491;DHT22;8356;51.214;3.270;2024-01-07T08:36:15;128.50;2252.80
16491;DHT22;8356;51.214;3.270;2024-01-07T08:38:40;128.60;2252.80
16491;DHT22;8356;51.214;3.270;2024-01-07T08:41:06;128.50;2252.80
16491;DHT22;8356;51.214;3.270;2024-01-07T08:43:32;128.40;2252.80
16491;DHT22;8356;51.214;3.270;2024-01-07T08:45:57;128.30;2252.80
16491;DHT22;8356;51.214;3.270;2024-01-07T08:48:23;128.30;2252.80
16491;DHT22;8356;51.214;3.270;2024-01-07T08:50:49;128.30;2252.80
16491;DHT22;8356;51.214;3.270;2024-01-07T08:53:15;128.50;2252.80
16491;DHT22;8356;51.214;3.270;2024-01-07T08:55:41;128.50;2252.80
16491;DHT22;8356;51.214;3.270;2024-01-07T08:58:07;128.60;2252.80
16491;DHT22;8356;51.214;3.270;2024-01-07T09:00:32;128.70;2252.80
16491;DHT22;8356;51.214;3.270;2024-01-07T09:02:58;128.70;2252.80
16491;DHT22;8356;51.214;3.270;2024-01-07T09:05:23;128.70;2252.80
16491;DHT22;8356;51.214;3.270;2024-01-07T09:07:50;128.70;2252.80
16491;DHT22;8356;51.214;3.270;2024-01-07T09:10:15;128.60;2252.80
16491;DHT22;8356;51.214;3.270;2024-01-07T09:12:41;128.80;2252.80
16491;DHT22;8356;51.214;3.270;2024-01-07T09:15:07;128.70;2252.80
16491;DHT22;8356;51.214;3.270;2024-01-07T09:17:35;128.80;2252.80
16491;DHT22;8356;51.214;3.270;2024-01-07T09:20:02;128.40;2252.80
16491;DHT22;8356;51.214;3.270;2024-01-07T09:22:30;153.60;2252.80
16491;DHT22;8356;51.214;3.270;2024-01-07T09:24:55;153.70;2252.80
16491;DHT22;8356;51.214;3.270;2024-01-07T09:27:21;153.60;2252.80
16491;DHT22;8356;51.214;3.270;2024-01-07T09:29:47;153.60;2252.80
16491;DHT22;8356;51.214;3.270;2024-01-07T09:32:12;128.90;2252.80
16491;DHT22;8356;51.214;3.270;2024-01-07T09:34:38;128.90;2252.80
16491;DHT22;8356;51.214;3.270;2024-01-07T09:37:04;128.70;2252.80
16491;DHT22;8356;51.214;3.270;2024-01-07T09:39:29;128.60;2252.80
16491;DHT22;8356;51.214;3.270;2024-01-07T09:41:55;128.60;2252.80
16491;DHT22;8356;51.214;3.270;2024-01-07T09:44:21;128.70;2252.80
16491;DHT22;8356;51.214;3.270;2024-01-07T09:46:46;128.60;2252.80
16491;DHT22;8356;51.214;3.270;2024-01-07T09:49:17;128.60;2252.80
16491;DHT22;8356;51.214;3.270;2024-01-07T09:51:45;128.70;2252.80
16491;DHT22;8356;51.214;3.270;2024-01-07T09:54:16;128.70;2252.80
16491;DHT22;8356;51.214;3.270;2024-01-07T09:56:50;128.70;2252.80
16491;DHT22;8356;51.214;3.270;2024-01-07T09:59:17;128.70;2252.80
16491;DHT22;8356;51.214;3.270;2024-01-07T10:01:44;128.80;2252.80
16491;DHT22;8356;51.214;3.270;2024-01-07T10:04:11;128.90;2252.80
16491;DHT22;8356;51.214;3.270;2024-01-07T10:06:36;153.60;2252.80
16491;DHT22;8356;51.214;3.270;2024-01-07T10:09:03;153.60;2252.80
16491;DHT22;8356;51.214;3.270;2024-01-07T10:11:31;153.70;2252.80
16491;DHT22;8356;51.214;3.270;2024-01-07T10:13:58;153.80;2252.80
16491;DHT22;8356;51.214;3.270;2024-01-07T10:16:23;153.70;2252.80
16491;DHT22;8356;51.214;3.270;2024-01-07T10:18:49;153.80;2252.80
16491;DHT22;8356;51.214;3.270;2024-01-07T10:21:15;153.60;2252.80
16491;DHT22;8356;51.214;3.270;2024-01-07T10:23:40;128.80;2252.80
16491;DHT22;8356;51.214;3.270;2024-01-07T10:26:06;128.70;2252.80
16491;DHT22;8356;51.214;3.270;2024-01-07T10:28:32;153.60;2252.80
16491;DHT22;8356;51.214;3.270;2024-01-07T10:30:59;128.90;2252.80
16491;DHT22;8356;51.214;3.270;2024-01-07T10:33:24;128.90;2252.80
16491;DHT22;8356;51.214;3.270;2024-01-07T10:35:58;153.60;2252.80
16491;DHT22;8356;51.214;3.270;2024-01-07T10:38:26;153.80;2252.80
16491;DHT22;8356;51.214;3.270;2024-01-07T10:40:52;153.80;2252.80
16491;DHT22;8356;51.214;3.270;2024-01-07T10:43:20;153.60;2252.80
16491;DHT22;8356;51.214;3.270;2024-01-07T10:45:47;153.60;2252.80
16491;DHT22;8356;51.214;3.270;2024-01-07T10:48:18;128.90;2252.80
16491;DHT22;8356;51.214;3.270;2024-01-07T10:50:47;153.60;2252.80
16491;DHT22;8356;51.214;3.270;2024-01-07T10:53:28;128.80;2252.80
16491;DHT22;8356;51.214;3.270;2024-01-07T10:56:02;128.70;2252.80
16491;DHT22;8356;51.214;3.270;2024-01-07T10:58:33;128.70;2252.80
16491;DHT22;8356;51.214;3.270;2024-01-07T11:01:02;128.70;2252.80
16491;DHT22;8356;51.214;3.270;2024-01-07T11:03:41;128.60;2252.80
16491;DHT22;8356;51.214;3.270;2024-01-07T11:08:52;128.70;2252.80
16491;DHT22;8356;51.214;3.270;2024-01-07T11:11:27;128.90;2252.80
16491;DHT22;8356;51.214;3.270;2024-01-07T11:13:57;153.80;2252.80
16491;DHT22;8356;51.214;3.270;2024-01-07T11:16:42;153.90;2252.80
16491;DHT22;8356;51.214;3.270;2024-01-07T11:19:09;154.50;2252.80
16491;DHT22;8356;51.214;3.270;2024-01-07T11:21:34;153.90;2252.80
16491;DHT22;8356;51.214;3.270;2024-01-07T11:24:00;153.90;2252.80
16491;DHT22;8356;51.214;3.270;2024-01-07T11:26:28;153.80;2252.80
16491;DHT22;8356;51.214;3.270;2024-01-07T11:28:56;153.70;2252.80
16491;DHT22;8356;51.214;3.270;2024-01-07T11:34:07;153.60;2252.80
16491;DHT22;8356;51.214;3.270;2024-01-07T11:36:35;153.80;2252.80
16491;DHT22;8356;51.214;3.270;2024-01-07T11:39:01;153.80;2252.80
16491;DHT22;8356;51.214;3.270;2024-01-07T11:41:29;153.80;2252.80
16491;DHT22;8356;51.214;3.270;2024-01-07T11:43:57;154.00;2252.80
16491;DHT22;8356;51.214;3.270;2024-01-07T11:46:27;153.90;2252.80
16491;DHT22;8356;51.214;3.270;2024-01-07T11:48:55;153.80;2252.80
16491;DHT22;8356;51.214;3.270;2024-01-07T11:53:53;153.90;2252.80
16491;DHT22;8356;51.214;3.270;2024-01-07T11:56:19;153.90;2252.80
16491;DHT22;8356;51.214;3.270;2024-01-07T11:58:44;153.90;2252.80
16491;DHT22;8356;51.214;3.270;2024-01-07T12:01:10;153.90;2252.80
16491;DHT22;8356;51.214;3.270;2024-01-07T12:03:36;153.70;2252.80
16491;DHT22;8356;51.214;3.270;2024-01-07T12:06:03;153.80;2252.80
16491;DHT22;8356;51.214;3.270;2024-01-07T12:08:29;153.80;2252.80
16491;DHT22;8356;51.214;3.270;2024-01-07T12:10:56;153.60;2252.80
16491;DHT22;8356;51.214;3.270;2024-01-07T12:13:22;128.90;2252.80
16491;DHT22;8356;51.214;3.270;2024-01-07T12:15:48;128.70;2252.80
16491;DHT22;8356;51.214;3.270;2024-01-07T12:18:14;153.70;2252.80
16491;DHT22;8356;51.214;3.270;2024-01-07T12:20:40;153.90;2252.80
16491;DHT22;8356;51.214;3.270;2024-01-07T12:23:09;153.80;2252.80
16491;DHT22;8356;51.214;3.270;2024-01-07T12:25:36;153.80;2252.80
16491;DHT22;8356;51.214;3.270;2024-01-07T12:28:02;128.90;2252.80
16491;DHT22;8356;51.214;3.270;2024-01-07T12:30:28;128.90;2252.80
16491;DHT22;8356;51.214;3.270;2024-01-07T12:32:54;128.90;2252.80
16491;DHT22;8356;51.214;3.270;2024-01-07T12:35:20;128.80;2252.80
16491;DHT22;8356;51.214;3.270;2024-01-07T12:37:48;153.70;2252.80
16491;DHT22;8356;51.214;3.270;2024-01-07T12:40:14;153.80;2252.80
16491;DHT22;8356;51.214;3.270;2024-01-07T12:42:40;128.80;2252.80
16491;DHT22;8356;51.214;3.270;2024-01-07T12:45:13;128.90;2252.80
16491;DHT22;8356;51.214;3.270;2024-01-07T12:47:40;153.70;2252.80
16491;DHT22;8356;51.214;3.270;2024-01-07T12:50:06;154.00;2252.80
16491;DHT22;8356;51.214;3.270;2024-01-07T12:52:34;154.00;2252.80
16491;DHT22;8356;51.214;3.270;2024-01-07T12:55:01;154.00;2252.80
16491;DHT22;8356;51.214;3.270;2024-01-07T12:57:26;153.90;2252.80
16491;DHT22;8356;51.214;3.270;2024-01-07T12:59:52;153.80;2252.80
16491;DHT22;8356;51.214;3.270;2024-01-07T13:02:17;153.80;2252.80
16491;DHT22;8356;51.214;3.270;2024-01-07T13:04:44;153.90;2252.80
16491;DHT22;8356;51.214;3.270;2024-01-07T13:07:09;153.90;2252.80
16491;DHT22;8356;51.214;3.270;2024-01-07T13:09:38;153.70;2252.80
16491;DHT22;8356;51.214;3.270;2024-01-07T13:12:04;128.90;2252.80
16491;DHT22;8356;51.214;3.270;2024-01-07T13:14:30;128.80;2252.80
16491;DHT22;8356;51.214;3.270;2024-01-07T13:16:55;128.60;2252.80
16491;DHT22;8356;51.214;3.270;2024-01-07T13:19:21;128.80;2252.80
16491;DHT22;8356;51.214;3.270;2024-01-07T13:21:47;128.80;2252.80
16491;DHT22;8356;51.214;3.270;2024-01-07T13:24:12;128.90;2252.80
16491;DHT22;8356;51.214;3.270;2024-01-07T13:26:38;153.70;2252.80
16491;DHT22;8356;51.214;3.270;2024-01-07T13:29:04;128.70;2252.80
16491;DHT22;8356;51.214;3.270;2024-01-07T13:31:29;128.70;2252.80
16491;DHT22;8356;51.214;3.270;2024-01-07T13:33:55;128.70;2252.80
16491;DHT22;8356;51.214;3.270;2024-01-07T13:36:21;153.60;2252.80
16491;DHT22;8356;51.214;3.270;2024-01-07T13:38:46;128.80;2252.80
16491;DHT22;8356;51.214;3.270;2024-01-07T13:41:16;128.80;2252.80
16491;DHT22;8356;51.214;3.270;2024-01-07T13:43:42;128.70;2252.80
16491;DHT22;8356;51.214;3.270;2024-01-07T13:46:08;128.70;2252.80
16491;DHT22;8356;51.214;3.270;2024-01-07T13:48:34;128.50;2252.80
16491;DHT22;8356;51.214;3.270;2024-01-07T13:51:00;128.50;2252.80
16491;DHT22;8356;51.214;3.270;2024-01-07T13:53:26;128.40;2252.80
16491;DHT22;8356;51.214;3.270;2024-01-07T13:55:51;128.30;2252.80
16491;DHT22;8356;51.214;3.270;2024-01-07T13:58:17;128.30;2252.80
16491;DHT22;8356;51.214;3.270;2024-01-07T14:00:45;128.30;2252.80
16491;DHT22;8356;51.214;3.270;2024-01-07T14:03:11;128.40;2252.80
16491;DHT22;8356;51.214;3.270;2024-01-07T14:05:36;128.50;2252.80
16491;DHT22;8356;51.214;3.270;2024-01-07T14:08:02;128.60;2252.80
16491;DHT22;8356;51.214;3.270;2024-01-07T14:10:29;128.50;2252.80
16491;DHT22;8356;51.214;3.270;2024-01-07T14:12:54;128.40;2252.80
16491;DHT22;8356;51.214;3.270;2024-01-07T14:15:20;128.50;2252.80
16491;DHT22;8356;51.214;3.270;2024-01-07T14:17:45;128.30;2252.80
16491;DHT22;8356;51.214;3.270;2024-01-07T14:20:11;128.60;2252.80
16491;DHT22;8356;51.214;3.270;2024-01-07T14:22:37;128.70;2252.80
16491;DHT22;8356;51.214;3.270;2024-01-07T14:25:03;128.50;2252.80
16491;DHT22;8356;51.214;3.270;2024-01-07T14:27:29;128.70;2252.80
16491;DHT22;8356;51.214;3.270;2024-01-07T14:29:54;128.80;2252.80
16491;DHT22;8356;51.214;3.270;2024-01-07T14:32:21;128.60;2252.80
16491;DHT22;8356;51.214;3.270;2024-01-07T14:34:47;128.60;2252.80
16491;DHT22;8356;51.214;3.270;2024-01-07T14:37:15;128.70;2252.80
16491;DHT22;8356;51.214;3.270;2024-01-07T14:39:41;128.70;2252.80
16491;DHT22;8356;51.214;3.270;2024-01-07T14:42:06;128.90;2252.80
16491;DHT22;8356;51.214;3.270;2024-01-07T14:44:32;128.80;2252.80
16491;DHT22;8356;51.214;3.270;2024-01-07T14:46:58;128.60;2252.80
16491;DHT22;8356;51.214;3.270;2024-01-07T14:49:24;128.60;2252.80
16491;DHT22;8356;51.214;3.270;2024-01-07T14:51:50;128.60;2252.80
16491;DHT22;8356;51.214;3.270;2024-01-07T14:54:16;128.70;2252.80
16491;DHT22;8356;51.214;3.270;2024-01-07T14:56:41;128.80;2252.80
16491;DHT22;8356;51.214;3.270;2024-01-07T14:59:08;128.70;2252.80
16491;DHT22;8356;51.214;3.270;2024-01-07T15:01:34;128.70;2252.80
16491;DHT22;8356;51.214;3.270;2024-01-07T15:04:00;128.60;2252.80
16491;DHT22;8356;51.214;3.270;2024-01-07T15:06:25;128.70;2252.80